createdAt,value
2023-04-26T00:01:35.500Z,98901.78
2023-04-26T00:04:04.880Z,98897.53
2023-04-26T00:06:34.919Z,98895.84
2023-04-26T00:09:04.960Z,98900.31
2023-04-26T00:11:35.926Z,98910.37
2023-04-26T00:14:05.060Z,98915.16
2023-04-26T00:16:35.187Z,98919.69
2023-04-26T00:19:05.063Z,98917.16
2023-04-26T00:21:34.059Z,98914.28
2023-04-26T00:24:02.734Z,98917.41
2023-04-26T00:26:31.444Z,98921.38
2023-04-26T00:29:00.434Z,98928.97
2023-04-26T00:31:29.202Z,98921.38
2023-04-26T00:33:59.227Z,98927.34
2023-04-26T00:36:28.266Z,98924.50
2023-04-26T00:38:56.898Z,98940.69
2023-04-26T00:41:25.580Z,98937.34
2023-04-26T00:43:54.627Z,98937.94
2023-04-26T00:46:23.887Z,98941.78
2023-04-26T00:48:53.297Z,98944.78
2023-04-26T00:51:23.843Z,98941.19
2023-04-26T00:53:52.592Z,98944.88
2023-04-26T00:56:22.732Z,98948.28
2023-04-26T00:58:54.252Z,98946.16
2023-04-26T01:01:23.177Z,98946.50
2023-04-26T01:03:52.429Z,98955.31
2023-04-26T01:06:21.781Z,98960.88
2023-04-26T01:08:53.740Z,98959.78
2023-04-26T01:11:24.334Z,98954.16
2023-04-26T01:13:53.121Z,98959.59
2023-04-26T01:16:21.944Z,98947.09
2023-04-26T01:18:52.921Z,98949.91
2023-04-26T01:21:22.821Z,98958.69
2023-04-26T01:23:53.387Z,98957.78
2023-04-26T01:26:22.158Z,98966.72
2023-04-26T01:28:51.260Z,98980.69
2023-04-26T01:31:20.085Z,98967.97
2023-04-26T01:33:48.850Z,98982.44
2023-04-26T01:36:17.753Z,98978.06
2023-04-26T01:38:46.412Z,98979.47
2023-04-26T01:41:17.006Z,98976.34
2023-04-26T01:43:46.062Z,98976.62
2023-04-26T01:46:14.791Z,98980.19
2023-04-26T01:48:43.966Z,98985.38
2023-04-26T01:51:13.361Z,98982.78
2023-04-26T01:53:42.120Z,98984.34
2023-04-26T01:56:11.382Z,98982.69
2023-04-26T01:58:41.768Z,98984.88
2023-04-26T02:01:11.598Z,98987.63
2023-04-26T02:03:40.645Z,98982.75
2023-04-26T02:06:09.577Z,98985.19
2023-04-26T02:08:38.458Z,98990.22
2023-04-26T02:11:08.398Z,98995.22
2023-04-26T02:13:38.420Z,98992.06
2023-04-26T02:16:08.984Z,98996.28
2023-04-26T02:18:37.728Z,98992.97
2023-04-26T02:21:09.668Z,99000.22
2023-04-26T02:23:38.610Z,98996.69
2023-04-26T02:26:07.335Z,99003.66
2023-04-26T02:28:36.818Z,98990.22
2023-04-26T02:31:05.870Z,98995.41
2023-04-26T02:33:36.083Z,99005.59
2023-04-26T02:36:06.494Z,99001.38
2023-04-26T02:38:36.366Z,99004.00
2023-04-26T02:41:05.971Z,98998.06
2023-04-26T02:43:34.807Z,99000.72
2023-04-26T02:46:03.678Z,99004.78
2023-04-26T02:48:32.808Z,99005.34
2023-04-26T02:51:02.886Z,99003.37
2023-04-26T02:53:31.825Z,99009.94
2023-04-26T02:56:01.676Z,99007.50
2023-04-26T02:58:30.480Z,99014.72
2023-04-26T03:01:01.264Z,99007.16
2023-04-26T03:03:31.107Z,99006.53
2023-04-26T03:06:00.316Z,99012.69
2023-04-26T03:08:30.475Z,99016.53
2023-04-26T03:10:59.332Z,99022.06
2023-04-26T03:13:30.028Z,99033.16
2023-04-26T03:15:59.407Z,99028.84
2023-04-26T03:18:28.473Z,99035.69
2023-04-26T03:20:57.473Z,99037.84
2023-04-26T03:23:26.466Z,99047.78
2023-04-26T03:25:56.940Z,99052.31
2023-04-26T03:28:26.061Z,99052.22
2023-04-26T03:30:55.118Z,99058.72
2023-04-26T03:33:23.912Z,99061.44
2023-04-26T03:35:52.807Z,99062.91
2023-04-26T03:38:22.496Z,99059.22
2023-04-26T03:40:51.463Z,99061.41
2023-04-26T03:43:21.568Z,99068.12
2023-04-26T03:45:51.042Z,99067.91
2023-04-26T03:48:19.787Z,99070.78
2023-04-26T03:50:48.714Z,99067.16
2023-04-26T03:53:17.802Z,99069.53
2023-04-26T03:55:46.591Z,99063.25
2023-04-26T03:58:17.431Z,99077.97
2023-04-26T04:00:47.807Z,99066.88
2023-04-26T04:03:17.114Z,99079.00
2023-04-26T04:05:46.057Z,99077.91
2023-04-26T04:08:15.705Z,99091.34
2023-04-26T04:10:45.195Z,99090.00
2023-04-26T04:13:13.862Z,99086.63
2023-04-26T04:15:43.317Z,99090.75
2023-04-26T04:18:13.679Z,99094.19
2023-04-26T04:20:42.622Z,99111.91
2023-04-26T04:23:11.314Z,99108.31
2023-04-26T04:25:40.504Z,99117.22
2023-04-26T04:28:09.634Z,99125.97
2023-04-26T04:30:38.442Z,99126.16
2023-04-26T04:33:07.522Z,99130.84
2023-04-26T04:35:37.975Z,99129.53
2023-04-26T04:38:07.221Z,99134.75
2023-04-26T04:40:36.538Z,99139.09
2023-04-26T04:43:05.191Z,99140.72
2023-04-26T04:45:35.509Z,99147.97
2023-04-26T04:48:05.276Z,99148.28
2023-04-26T04:50:34.539Z,99150.72
2023-04-26T04:53:04.833Z,99151.50
2023-04-26T04:55:33.755Z,99159.12
2023-04-26T04:58:03.713Z,99160.59
2023-04-26T05:00:34.105Z,99172.66
2023-04-26T05:03:03.806Z,99166.34
2023-04-26T05:05:33.051Z,99160.59
2023-04-26T05:08:01.862Z,99167.06
2023-04-26T05:10:32.968Z,99164.06
2023-04-26T05:13:01.852Z,99181.84
2023-04-26T05:15:30.943Z,99170.53
2023-04-26T05:18:01.182Z,99186.00
2023-04-26T05:20:31.296Z,99179.09
2023-04-26T05:23:00.433Z,99179.50
2023-04-26T05:25:29.291Z,99183.59
2023-04-26T05:27:59.596Z,99177.84
2023-04-26T05:30:31.375Z,99182.44
2023-04-26T05:33:00.520Z,99183.25
2023-04-26T05:35:31.509Z,99189.78
2023-04-26T05:38:00.128Z,99184.19
2023-04-26T05:40:28.930Z,99196.53
2023-04-26T05:42:59.286Z,99186.88
2023-04-26T05:45:28.470Z,99192.91
2023-04-26T05:47:57.239Z,99183.59
2023-04-26T05:50:27.122Z,99189.88
2023-04-26T05:52:56.003Z,99188.59
2023-04-26T05:55:24.750Z,99179.25
2023-04-26T05:57:54.036Z,99187.09
2023-04-26T06:00:25.022Z,99189.03
2023-04-26T06:02:54.390Z,99190.75
2023-04-26T06:05:23.541Z,99199.28
2023-04-26T06:07:52.608Z,99205.78
2023-04-26T06:10:22.118Z,99209.06
2023-04-26T06:12:51.749Z,99208.34
2023-04-26T06:15:20.649Z,99213.63
2023-04-26T06:17:51.000Z,99211.88
2023-04-26T06:20:19.726Z,99204.50
2023-04-26T06:22:48.445Z,99208.81
2023-04-26T06:25:18.031Z,99210.09
2023-04-26T06:27:46.720Z,99208.72
2023-04-26T06:30:16.090Z,99210.31
2023-04-26T06:32:46.055Z,99213.19
2023-04-26T06:35:17.549Z,99201.37
2023-04-26T06:37:46.563Z,99205.41
2023-04-26T06:40:16.677Z,99195.88
2023-04-26T06:42:45.453Z,99214.88
2023-04-26T06:45:15.168Z,99216.06
2023-04-26T06:47:44.189Z,99209.72
2023-04-26T06:50:13.715Z,99226.09
2023-04-26T06:52:43.972Z,99209.03
2023-04-26T06:55:12.626Z,99220.28
2023-04-26T06:57:41.347Z,99216.75
2023-04-26T07:00:11.809Z,99231.03
2023-04-26T07:02:40.647Z,99217.66
2023-04-26T07:05:09.863Z,99218.41
2023-04-26T07:07:38.937Z,99219.31
2023-04-26T07:10:10.624Z,99210.38
2023-04-26T07:12:39.581Z,99208.53
2023-04-26T07:15:09.608Z,99216.13
2023-04-26T07:17:38.406Z,99214.16
2023-04-26T07:20:08.824Z,99215.28
2023-04-26T07:22:37.687Z,99230.28
2023-04-26T07:25:07.526Z,99229.78
2023-04-26T07:27:37.875Z,99234.72
2023-04-26T07:30:07.839Z,99247.37
2023-04-26T07:32:37.666Z,99237.41
2023-04-26T07:35:10.535Z,99235.81
2023-04-26T07:37:39.618Z,99240.69
2023-04-26T07:40:10.641Z,99241.78
2023-04-26T07:42:40.935Z,99239.72
2023-04-26T07:45:11.250Z,99239.50
2023-04-26T07:47:40.160Z,99247.37
2023-04-26T07:50:12.231Z,99252.38
2023-04-26T07:52:42.241Z,99267.75
2023-04-26T07:55:11.312Z,99249.72
2023-04-26T07:57:41.774Z,99261.16
2023-04-26T08:00:12.261Z,99252.75
2023-04-26T08:02:44.897Z,99264.31
2023-04-26T08:05:14.698Z,99271.75
2023-04-26T08:07:44.248Z,99261.94
2023-04-26T08:10:13.483Z,99271.34
2023-04-26T08:12:43.917Z,99263.50
2023-04-26T08:15:13.660Z,99273.81
2023-04-26T08:17:42.639Z,99285.66
2023-04-26T08:20:12.284Z,99285.47
2023-04-26T08:22:40.984Z,99284.84
2023-04-26T08:25:10.790Z,99281.81
2023-04-26T08:27:39.962Z,99285.19
2023-04-26T08:30:11.014Z,99295.09
2023-04-26T08:32:39.789Z,99276.34
2023-04-26T08:35:09.623Z,99293.94
2023-04-26T08:37:38.914Z,99294.84
2023-04-26T08:40:14.769Z,99299.56
2023-04-26T08:42:44.378Z,99307.84
2023-04-26T08:45:16.333Z,99301.09
2023-04-26T08:47:46.247Z,99301.22
2023-04-26T08:50:16.437Z,99315.06
2023-04-26T08:52:45.603Z,99300.06
2023-04-26T08:55:16.424Z,99308.09
2023-04-26T08:57:47.521Z,99305.09
2023-04-26T09:00:18.761Z,99310.47
2023-04-26T09:02:49.998Z,99307.87
2023-04-26T09:05:23.635Z,99311.78
2023-04-26T09:07:53.257Z,99309.00
2023-04-26T09:10:23.301Z,99322.37
2023-04-26T09:12:53.588Z,99311.19
2023-04-26T09:15:26.435Z,99307.69
2023-04-26T09:17:55.858Z,99321.78
2023-04-26T09:20:27.619Z,99309.16
2023-04-26T09:23:08.105Z,99303.62
2023-04-26T09:25:37.342Z,99306.34
2023-04-26T09:28:20.541Z,99282.59
2023-04-26T09:30:50.953Z,99282.56
2023-04-26T09:33:20.061Z,99289.19
2023-04-26T09:35:48.787Z,99288.22
2023-04-26T09:38:19.358Z,99287.72
2023-04-26T09:40:52.869Z,99296.22
2023-04-26T09:43:22.713Z,99293.53
2023-04-26T09:45:54.581Z,99291.38
2023-04-26T09:48:25.828Z,99302.72
2023-04-26T09:50:55.991Z,99312.69
2023-04-26T09:53:29.550Z,99293.91
2023-04-26T09:55:59.611Z,99292.09
2023-04-26T09:58:28.332Z,99294.50
2023-04-26T10:00:58.512Z,99298.44
2023-04-26T10:03:28.118Z,99303.22
2023-04-26T10:05:57.854Z,99301.44
2023-04-26T10:08:26.870Z,99304.91
2023-04-26T10:10:56.779Z,99297.34
2023-04-26T10:13:25.963Z,99292.78
2023-04-26T10:15:55.172Z,99296.34
2023-04-26T10:18:25.363Z,99300.16
2023-04-26T10:20:57.286Z,99311.16
2023-04-26T10:23:26.559Z,99302.88
2023-04-26T10:25:55.866Z,99315.47
2023-04-26T10:29:02.676Z,99299.78
2023-04-26T10:32:10.604Z,99310.06
2023-04-26T10:34:41.665Z,99269.22
2023-04-26T10:37:14.336Z,99309.91
2023-04-26T10:39:43.888Z,99317.63
2023-04-26T10:42:26.962Z,99320.66
2023-04-26T10:44:56.591Z,99320.72
2023-04-26T10:47:30.591Z,99324.03
2023-04-26T10:50:08.770Z,99305.06
2023-04-26T10:52:38.057Z,99310.44
2023-04-26T10:55:07.927Z,99312.16
2023-04-26T10:57:51.500Z,99323.75
2023-04-26T11:00:32.325Z,99309.06
2023-04-26T11:03:07.089Z,99299.94
2023-04-26T11:05:56.016Z,99315.00
2023-04-26T11:08:30.145Z,99295.34
2023-04-26T11:11:10.182Z,99298.00
2023-04-26T11:13:40.108Z,99300.75
2023-04-26T11:16:09.664Z,99317.50
2023-04-26T11:18:39.880Z,99298.50
2023-04-26T11:21:11.226Z,99293.03
2023-04-26T11:23:40.276Z,99304.12
2023-04-26T11:26:10.410Z,99306.53
2023-04-26T11:28:39.790Z,99314.31
2023-04-26T11:31:08.615Z,99308.13
2023-04-26T11:33:37.827Z,99314.44
2023-04-26T11:36:07.235Z,99321.94
2023-04-26T11:38:39.010Z,99310.34
2023-04-26T11:41:10.479Z,99305.81
2023-04-26T11:43:40.123Z,99297.09
2023-04-26T11:46:10.485Z,99303.69
2023-04-26T11:48:40.177Z,99308.53
2023-04-26T11:51:10.544Z,99307.87
2023-04-26T11:53:41.883Z,99320.66
2023-04-26T11:56:17.814Z,99311.28
2023-04-26T11:58:47.743Z,99307.41
2023-04-26T12:01:24.235Z,99332.28
2023-04-26T12:03:54.277Z,99325.94
2023-04-26T12:06:30.805Z,99325.88
2023-04-26T12:09:03.024Z,99328.50
2023-04-26T12:11:31.771Z,99318.16
2023-04-26T12:14:01.548Z,99323.37
2023-04-26T12:16:30.501Z,99316.06
2023-04-26T12:18:59.265Z,99319.06
2023-04-26T12:21:30.724Z,99306.13
2023-04-26T12:24:04.243Z,99304.78
2023-04-26T12:26:45.795Z,99300.72
2023-04-26T12:29:14.559Z,99302.19
2023-04-26T12:31:43.892Z,99303.28
2023-04-26T12:34:12.561Z,99319.72
2023-04-26T12:36:43.304Z,99320.50
2023-04-26T12:39:15.725Z,99329.81
2023-04-26T12:41:45.099Z,99322.37
2023-04-26T12:44:14.383Z,99321.81
2023-04-26T12:46:43.284Z,99326.22
2023-04-26T12:49:12.030Z,99334.09
2023-04-26T12:51:41.086Z,99329.13
2023-04-26T12:54:09.868Z,99325.88
2023-04-26T12:56:43.853Z,99327.88
2023-04-26T12:59:13.175Z,99319.53
2023-04-26T13:01:42.040Z,99327.16
2023-04-26T13:04:11.438Z,99330.66
2023-04-26T13:06:40.575Z,99336.41
2023-04-26T13:09:09.495Z,99336.13
2023-04-26T13:11:42.141Z,99333.41
2023-04-26T13:14:11.260Z,99320.16
2023-04-26T13:16:43.757Z,99330.72
2023-04-26T13:19:12.745Z,99334.62
2023-04-26T13:21:42.104Z,99338.19
2023-04-26T13:24:10.832Z,99325.97
2023-04-26T13:26:41.221Z,99333.50
2023-04-26T13:29:10.171Z,99331.72
2023-04-26T13:31:40.034Z,99324.75
2023-04-26T13:34:09.765Z,99348.53
2023-04-26T13:36:38.450Z,99354.47
2023-04-26T13:39:08.111Z,99355.16
2023-04-26T13:41:37.267Z,99358.44
2023-04-26T13:44:07.320Z,99351.38
2023-04-26T13:46:36.354Z,99351.25
2023-04-26T13:49:05.574Z,99348.00
2023-04-26T13:51:34.866Z,99349.09
2023-04-26T13:54:04.029Z,99343.81
2023-04-26T13:56:32.979Z,99355.81
2023-04-26T13:59:05.674Z,99355.13
2023-04-26T14:01:36.983Z,99359.81
2023-04-26T14:04:06.741Z,99365.00
2023-04-26T14:06:36.385Z,99370.78
2023-04-26T14:09:07.027Z,99348.00
2023-04-26T14:11:36.047Z,99363.00
2023-04-26T14:14:05.207Z,99377.59
2023-04-26T14:16:35.466Z,99372.16
2023-04-26T14:19:04.591Z,99381.56
2023-04-26T14:21:33.261Z,99381.47
2023-04-26T14:24:02.051Z,99380.94
2023-04-26T14:26:30.960Z,99386.13
2023-04-26T14:28:59.654Z,99379.91
2023-04-26T14:31:30.436Z,99379.72
2023-04-26T14:34:01.031Z,99383.06
2023-04-26T14:36:29.799Z,99378.94
2023-04-26T14:38:58.566Z,99386.38
2023-04-26T14:41:27.529Z,99379.41
2023-04-26T14:43:58.607Z,99380.69
2023-04-26T14:46:27.297Z,99374.63
2023-04-26T14:48:56.417Z,99381.91
2023-04-26T14:51:27.366Z,99392.44
2023-04-26T14:53:56.504Z,99390.66
2023-04-26T14:56:25.276Z,99389.78
2023-04-26T14:58:53.973Z,99384.88
2023-04-26T15:01:23.081Z,99388.47
2023-04-26T15:03:51.984Z,99386.44
2023-04-26T15:06:20.809Z,99389.31
2023-04-26T15:08:51.389Z,99376.37
2023-04-26T15:11:20.039Z,99384.69
2023-04-26T15:13:48.937Z,99384.63
2023-04-26T15:16:17.929Z,99388.44
2023-04-26T15:18:46.743Z,99374.50
2023-04-26T15:21:17.735Z,99382.34
2023-04-26T15:23:46.527Z,99399.66
2023-04-26T15:26:16.965Z,99390.22
2023-04-26T15:28:47.351Z,99392.28
2023-04-26T15:31:16.395Z,99395.12
2023-04-26T15:33:45.128Z,99393.25
2023-04-26T15:36:13.752Z,99384.09
2023-04-26T15:38:45.296Z,99392.19
2023-04-26T15:41:14.194Z,99400.50
2023-04-26T15:43:44.503Z,99390.41
2023-04-26T15:46:14.555Z,99394.19
2023-04-26T15:48:44.142Z,99395.06
2023-04-26T15:51:12.843Z,99392.53
2023-04-26T15:53:43.998Z,99395.16
2023-04-26T15:56:16.461Z,99394.38
2023-04-26T15:58:46.971Z,99397.75
2023-04-26T16:01:16.155Z,99405.44
2023-04-26T16:03:47.641Z,99401.56
2023-04-26T16:06:16.790Z,99390.44
2023-04-26T16:08:45.977Z,99406.87
2023-04-26T16:11:14.634Z,99406.41
2023-04-26T16:13:44.575Z,99414.56
2023-04-26T16:16:15.090Z,99409.53
2023-04-26T16:18:44.295Z,99417.41
2023-04-26T16:21:13.630Z,99417.84
2023-04-26T16:23:42.709Z,99431.03
2023-04-26T16:26:11.990Z,99425.53
2023-04-26T16:28:40.912Z,99433.25
2023-04-26T16:31:09.692Z,99425.50
2023-04-26T16:33:39.826Z,99419.19
2023-04-26T16:36:10.196Z,99425.12
2023-04-26T16:38:39.177Z,99430.06
2023-04-26T16:41:08.102Z,99426.22
2023-04-26T16:43:36.964Z,99428.72
2023-04-26T16:46:06.654Z,99427.13
2023-04-26T16:48:37.023Z,99444.00
2023-04-26T16:51:08.188Z,99433.84
2023-04-26T16:53:37.718Z,99437.00
2023-04-26T16:56:07.442Z,99434.66
2023-04-26T16:58:36.110Z,99437.44
2023-04-26T17:01:05.095Z,99437.66
2023-04-26T17:03:36.084Z,99446.34
2023-04-26T17:06:07.822Z,99440.56
2023-04-26T17:08:36.947Z,99447.91
2023-04-26T17:11:06.059Z,99442.75
2023-04-26T17:13:35.177Z,99448.91
2023-04-26T17:16:05.764Z,99446.63
2023-04-26T17:18:34.843Z,99443.41
2023-04-26T17:21:03.887Z,99450.84
2023-04-26T17:23:35.054Z,99447.44
2023-04-26T17:26:04.892Z,99444.78
2023-04-26T17:28:35.424Z,99450.47
2023-04-26T17:31:06.139Z,99454.34
2023-04-26T17:33:35.368Z,99458.31
2023-04-26T17:36:04.774Z,99465.78
2023-04-26T17:38:36.163Z,99469.44
2023-04-26T17:41:05.980Z,99469.75
2023-04-26T17:43:37.902Z,99471.62
2023-04-26T17:46:07.449Z,99474.22
2023-04-26T17:48:36.712Z,99480.53
2023-04-26T17:51:07.133Z,99481.53
2023-04-26T17:53:38.686Z,99485.63
2023-04-26T17:56:10.732Z,99491.72
2023-04-26T17:58:39.916Z,99496.44
2023-04-26T18:01:09.459Z,99497.53
2023-04-26T18:03:39.566Z,99499.94
2023-04-26T18:06:08.905Z,99503.56
2023-04-26T18:08:39.356Z,99499.72
2023-04-26T18:11:08.185Z,99492.56
2023-04-26T18:13:37.259Z,99504.00
2023-04-26T18:16:06.676Z,99504.75
2023-04-26T18:18:36.223Z,99509.47
2023-04-26T18:21:07.253Z,99516.72
2023-04-26T18:23:36.421Z,99514.44
2023-04-26T18:26:06.281Z,99522.53
2023-04-26T18:28:38.165Z,99533.84
2023-04-26T18:31:08.233Z,99527.87
2023-04-26T18:33:38.061Z,99527.19
2023-04-26T18:36:09.022Z,99522.38
2023-04-26T18:38:38.032Z,99531.66
2023-04-26T18:41:15.229Z,99534.81
2023-04-26T18:43:47.161Z,99542.78
2023-04-26T18:46:18.350Z,99543.59
2023-04-26T18:48:47.954Z,99553.84
2023-04-26T18:51:20.972Z,99555.09
2023-04-26T18:53:50.355Z,99557.53
2023-04-26T18:56:21.636Z,99559.50
2023-04-26T18:58:53.188Z,99562.03
2023-04-26T19:01:24.369Z,99571.28
2023-04-26T19:03:53.726Z,99572.41
2023-04-26T19:06:24.355Z,99565.38
2023-04-26T19:08:53.803Z,99570.09
2023-04-26T19:11:24.309Z,99566.75
2023-04-26T19:13:55.028Z,99572.56
2023-04-26T19:16:24.688Z,99567.41
2023-04-26T19:18:55.713Z,99568.00
2023-04-26T19:21:25.444Z,99565.91
2023-04-26T19:23:56.642Z,99567.44
2023-04-26T19:26:27.748Z,99569.28
2023-04-26T19:28:57.627Z,99567.72
2023-04-26T19:31:27.653Z,99567.97
2023-04-26T19:33:59.974Z,99567.91
2023-04-26T19:36:32.103Z,99574.00
2023-04-26T19:39:08.213Z,99579.41
2023-04-26T19:41:39.374Z,99572.16
2023-04-26T19:44:09.245Z,99577.75
2023-04-26T19:46:38.558Z,99577.97
2023-04-26T19:49:09.006Z,99592.91
2023-04-26T19:51:38.938Z,99593.09
2023-04-26T19:54:09.289Z,99594.12
2023-04-26T19:56:41.760Z,99585.56
2023-04-26T19:59:17.456Z,99596.31
2023-04-26T20:01:46.859Z,99588.75
2023-04-26T20:04:17.406Z,99590.63
2023-04-26T20:06:48.852Z,99593.16
2023-04-26T20:09:20.327Z,99589.19
2023-04-26T20:11:52.519Z,99591.00
2023-04-26T20:14:22.172Z,99587.31
2023-04-26T20:16:52.268Z,99589.19
2023-04-26T20:19:22.219Z,99585.81
2023-04-26T20:21:52.277Z,99589.91
2023-04-26T20:24:23.346Z,99593.84
2023-04-26T20:26:54.830Z,99591.13
2023-04-26T20:29:25.355Z,99582.44
2023-04-26T20:31:54.626Z,99584.13
2023-04-26T20:34:26.631Z,99587.63
2023-04-26T20:36:56.738Z,99585.88
2023-04-26T20:39:28.440Z,99593.28
2023-04-26T20:41:59.409Z,99595.16
2023-04-26T20:44:28.699Z,99601.09
2023-04-26T20:46:58.433Z,99602.78
2023-04-26T20:49:28.534Z,99600.41
2023-04-26T20:51:58.297Z,99605.50
2023-04-26T20:54:27.109Z,99610.00
2023-04-26T20:56:55.900Z,99612.81
2023-04-26T20:59:26.734Z,99608.47
2023-04-26T21:01:55.830Z,99612.81
2023-04-26T21:04:24.971Z,99622.19
2023-04-26T21:06:54.432Z,99620.44
2023-04-26T21:09:23.153Z,99621.34
2023-04-26T21:11:52.090Z,99620.53
2023-04-26T21:14:20.783Z,99619.97
2023-04-26T21:16:50.795Z,99621.59
2023-04-26T21:19:19.723Z,99626.81
2023-04-26T21:21:48.695Z,99624.44
2023-04-26T21:24:17.590Z,99627.78
2023-04-26T21:26:46.538Z,99629.34
2023-04-26T21:29:15.278Z,99628.59
2023-04-26T21:31:44.200Z,99627.84
2023-04-26T21:34:14.818Z,99631.22
2023-04-26T21:36:43.462Z,99636.53
2023-04-26T21:39:12.425Z,99631.28
2023-04-26T21:41:41.964Z,99639.97
2023-04-26T21:44:11.238Z,99638.13
2023-04-26T21:46:40.152Z,99648.59
2023-04-26T21:49:10.344Z,99648.66
2023-04-26T21:51:40.798Z,99652.03
2023-04-26T21:54:09.826Z,99649.31
2023-04-26T21:56:38.517Z,99657.22
2023-04-26T21:59:08.414Z,99652.13
2023-04-26T22:01:37.428Z,99660.75
2023-04-26T22:04:06.648Z,99665.94
2023-04-26T22:06:35.602Z,99662.53
2023-04-26T22:09:09.477Z,99660.78
2023-04-26T22:11:38.892Z,99663.41
2023-04-26T22:14:07.610Z,99671.22
2023-04-26T22:16:36.399Z,99673.81
2023-04-26T22:19:05.515Z,99672.16
2023-04-26T22:21:34.254Z,99673.81
2023-04-26T22:24:02.947Z,99680.00
2023-04-26T22:26:33.292Z,99681.69
2023-04-26T22:29:02.040Z,99687.78
2023-04-26T22:31:30.808Z,99685.28
2023-04-26T22:33:59.963Z,99686.19
2023-04-26T22:36:28.694Z,99690.44
2023-04-26T22:38:59.018Z,99685.22
2023-04-26T22:41:28.020Z,99699.03
2023-04-26T22:43:58.081Z,99696.47
2023-04-26T22:46:27.000Z,99699.91
2023-04-26T22:48:56.065Z,99694.81
2023-04-26T22:51:27.093Z,99695.66
2023-04-26T22:53:55.968Z,99698.19
2023-04-26T22:56:24.633Z,99705.94
2023-04-26T22:58:53.433Z,99702.53
2023-04-26T23:01:23.807Z,99699.09
2023-04-26T23:03:52.641Z,99700.81
2023-04-26T23:06:21.498Z,99705.97
2023-04-26T23:08:50.536Z,99707.72
2023-04-26T23:11:19.727Z,99706.00
2023-04-26T23:13:49.204Z,99706.88
2023-04-26T23:16:18.197Z,99712.00
2023-04-26T23:18:48.374Z,99713.75
2023-04-26T23:21:17.061Z,99712.03
2023-04-26T23:23:46.295Z,99711.16
2023-04-26T23:26:15.053Z,99714.59
2023-04-26T23:28:43.821Z,99718.91
2023-04-26T23:31:12.894Z,99723.19
2023-04-26T23:33:41.927Z,99723.22
2023-04-26T23:36:12.120Z,99729.25
2023-04-26T23:38:41.338Z,99734.41
2023-04-26T23:41:10.090Z,99732.69
2023-04-26T23:43:38.812Z,99733.53
2023-04-26T23:46:07.844Z,99727.53
2023-04-26T23:48:36.821Z,99728.38
2023-04-26T23:51:06.179Z,99723.22
2023-04-26T23:53:36.570Z,99724.94
2023-04-26T23:56:06.389Z,99724.94
2023-04-26T23:58:35.504Z,99723.22
